Time;durP1;ratioP1;P1;durP2;ratioP2;P2;SDS_P1;SDS_P2;PMS_P1;PMS_P2;Temp;Humidity;BMP_temperature;BMP_pressure;BME280_temperature;BME280_humidity;BME280_pressure;Samples;Min_cycle;Max_cycle;Signal;HPM_P1;HPM_P2
2022/03/22 00:00:55;;;;;;;;;;;;;;;;;;5113220;28;20368;-74
2022/03/22 00:03:25;;;;;;;;;;;11.90;1.00;;;;;;5113128;28;20392;-75
2022/03/22 00:05:51;;;;;;;;;;;11.90;1.00;;;;;;5113110;28;19972;-75
2022/03/22 00:08:17;;;;;;;;;;;11.80;1.00;;;;;;5112380;28;20007;-74
2022/03/22 00:10:43;;;;;;;;;;;11.80;1.00;;;;;;5112874;28;19912;-74
2022/03/22 00:13:09;;;;;;;;;;;11.90;1.00;;;;;;5112328;28;19953;-74
2022/03/22 00:15:35;;;;;;;;;;;11.90;1.00;;;;;;5112967;28;19912;-74
2022/03/22 00:18:00;;;;;;;;;;;11.80;1.00;;;;;;5094033;28;19991;-75
2022/03/22 00:20:27;;;;;;;;;;;11.70;1.00;;;;;;5112975;28;20363;-75
2022/03/22 00:22:53;;;;;;;;;;;;;;;;;;5112897;28;19954;-74
2022/03/22 00:25:18;;;;;;;;;;;11.70;1.00;;;;;;5112316;28;20363;-74
2022/03/22 00:27:51;;;;;;;;;;;11.70;1.00;;;;;;5094693;28;19908;-74
2022/03/22 00:30:18;;;;;;;;;;;11.60;1.00;;;;;;5112069;28;19908;-74
2022/03/22 00:32:44;;;;;;;;;;;11.60;1.00;;;;;;5113107;28;19950;-74
2022/03/22 00:35:09;;;;;;;;;;;11.60;1.00;;;;;;5111626;28;19943;-74
2022/03/22 00:37:42;;;;;;;;;;;11.60;1.00;;;;;;5094626;28;19912;-74
2022/03/22 00:40:11;;;;;;;;;;;11.60;1.00;;;;;;5112135;28;19908;-74
2022/03/22 00:42:37;;;;;;;;;;;11.50;1.00;;;;;;5112985;28;19907;-74
2022/03/22 00:45:03;;;;;;;;;;;11.60;1.00;;;;;;5093661;28;19915;-74
2022/03/22 00:47:28;;;;;;;;;;;11.50;1.00;;;;;;5112751;28;19908;-75
2022/03/22 00:49:54;;;;;;;;;;;11.50;1.00;;;;;;5094495;28;19908;-75
2022/03/22 00:52:19;;;;;;;;;;;11.60;1.00;;;;;;5111969;28;20287;-74
2022/03/22 00:54:45;;;;;;;;;;;11.60;1.00;;;;;;5112702;28;20390;-74
2022/03/22 00:57:10;;;;;;;;;;;11.50;1.00;;;;;;5122557;28;19911;-74
2022/03/22 01:02:20;;;;;;;;;;;11.50;1.00;;;;;;5132306;28;20011;-74
2022/03/22 01:04:45;;;;;;;;;;;11.50;1.00;;;;;;5118636;28;19949;-74
2022/03/22 01:07:11;;;;;;;;;;;11.50;1.00;;;;;;5112220;28;19962;-73
2022/03/22 01:09:36;;;;;;;;;;;11.40;1.00;;;;;;5112544;28;19912;-75
2022/03/22 01:12:02;;;;;;;;;;;11.30;1.00;;;;;;5111698;28;19963;-73
2022/03/22 01:14:28;;;;;;;;;;;11.30;1.00;;;;;;5112470;28;20428;-73
2022/03/22 01:16:54;;;;;;;;;;;11.30;1.00;;;;;;5112325;28;19918;-75
2022/03/22 01:19:21;;;;;;;;;;;;;;;;;;5111707;28;20500;-74
2022/03/22 01:21:47;;;;;;;;;;;11.20;1.00;;;;;;5112446;28;19908;-74
2022/03/22 01:24:12;;;;;;;;;;;11.10;1.00;;;;;;5115519;28;19908;-74
2022/03/22 01:26:38;;;;;;;;;;;11.10;1.00;;;;;;5116275;28;20360;-74
2022/03/22 01:29:03;;;;;;;;;;;11.10;1.00;;;;;;5115437;28;19957;-74
2022/03/22 01:31:29;;;;;;;;;;;11.10;1.00;;;;;;5116312;28;19908;-75
2022/03/22 01:33:55;;;;;;;;;;;11.10;1.00;;;;;;5115939;28;20364;-75
2022/03/22 01:36:21;;;;;;;;;;;11.00;1.00;;;;;;5114929;28;19974;-73
2022/03/22 01:38:47;;;;;;;;;;;11.00;1.00;;;;;;5116026;28;19912;-74
2022/03/22 01:41:13;;;;;;;;;;;11.00;1.00;;;;;;5096887;28;19915;-73
2022/03/22 01:43:39;;;;;;;;;;;11.10;1.00;;;;;;5116151;28;19908;-75
2022/03/22 01:46:04;;;;;;;;;;;11.00;1.00;;;;;;5115094;28;19915;-72
2022/03/22 01:48:30;;;;;;;;;;;11.00;1.00;;;;;;5115795;28;19995;-74
2022/03/22 01:50:55;;;;;;;;;;;11.00;1.00;;;;;;5115820;28;20000;-74
2022/03/22 01:53:21;;;;;;;;;;;11.00;1.00;;;;;;5115150;28;19904;-74
2022/03/22 01:55:47;;;;;;;;;;;10.90;1.00;;;;;;5115620;28;20018;-74
2022/03/22 01:58:13;;;;;;;;;;;11.00;1.00;;;;;;5114808;28;19998;-74
2022/03/22 02:00:39;;;;;;;;;;;11.00;1.00;;;;;;5115507;28;20356;-74
2022/03/22 02:05:55;;;;;;;;;;;10.90;1.00;;;;;;5095338;28;19919;-74
2022/03/22 02:08:23;;;;;;;;;;;10.80;1.00;;;;;;5109521;28;20528;-74
2022/03/22 02:10:48;;;;;;;;;;;10.80;1.00;;;;;;5095263;28;20279;-74
2022/03/22 02:13:14;;;;;;;;;;;10.80;1.00;;;;;;5076133;28;19908;-76
2022/03/22 02:15:39;;;;;;;;;;;10.80;1.00;;;;;;5077392;28;19915;-74
2022/03/22 02:18:05;;;;;;;;;;;10.80;1.00;;;;;;5094762;28;20407;-73
2022/03/22 02:20:30;;;;;;;;;;;10.60;1.00;;;;;;5095005;28;19908;-74
2022/03/22 02:23:06;;;;;;;;;;;10.60;1.00;;;;;;5076646;28;20022;-74
2022/03/22 02:25:35;;;;;;;;;;;10.50;1.00;;;;;;5095069;28;19908;-75
2022/03/22 02:28:01;;;;;;;;;;;;;;;;;;5076580;28;19912;-74
2022/03/22 02:30:26;;;;;;;;;;;10.40;1.00;;;;;;5109943;28;19991;-75
2022/03/22 02:32:55;;;;;;;;;;;10.40;1.00;;;;;;5094628;28;19908;-75
2022/03/22 02:35:22;;;;;;;;;;;10.30;1.00;;;;;;5108505;28;19923;-75
2022/03/22 02:37:47;;;;;;;;;;;10.40;1.00;;;;;;5115058;28;20382;-75
2022/03/22 02:40:13;;;;;;;;;;;10.10;1.00;;;;;;5114237;28;19908;-74
2022/03/22 02:42:44;;;;;;;;;;;9.90;1.00;;;;;;5096588;28;20352;-75
2022/03/22 02:45:11;;;;;;;;;;;9.50;1.00;;;;;;5113994;28;19915;-74
2022/03/22 02:47:38;;;;;;;;;;;9.50;1.00;;;;;;5114747;28;19908;-74
2022/03/22 02:50:04;;;;;;;;;;;;;;;;;;5114250;28;20364;-73
2022/03/22 02:52:30;;;;;;;;;;;9.50;1.00;;;;;;5096157;28;19918;-74
2022/03/22 02:54:56;;;;;;;;;;;9.50;1.00;;;;;;5096278;28;19914;-74
2022/03/22 02:57:22;;;;;;;;;;;;;;;;;;5113635;28;19999;-75
2022/03/22 02:59:47;;;;;;;;;;;9.30;1.00;;;;;;5114446;28;19939;-75
2022/03/22 03:02:13;;;;;;;;;;;9.30;1.00;;;;;;5113627;28;19912;-74
2022/03/22 03:04:39;;;;;;;;;;;9.20;1.00;;;;;;5106515;28;19908;-75
2022/03/22 03:07:04;;;;;;;;;;;;;;;;;;5109456;28;19919;-74
2022/03/22 03:09:30;;;;;;;;;;;9.00;1.00;;;;;;5093539;28;19923;-75
2022/03/22 03:11:56;;;;;;;;;;;9.10;1.00;;;;;;5075689;28;19908;-75
2022/03/22 03:14:39;;;;;;;;;;;9.30;1.00;;;;;;5093018;28;19969;-75
2022/03/22 03:17:05;;;;;;;;;;;;;;;;;;5093427;28;20006;-73
2022/03/22 03:19:31;;;;;;;;;;;9.50;1.00;;;;;;5093356;28;20006;-74
2022/03/22 03:21:56;;;;;;;;;;;9.50;1.00;;;;;;5093607;28;19915;-74
2022/03/22 03:24:22;;;;;;;;;;;9.50;1.00;;;;;;5108509;28;20379;-74
2022/03/22 03:26:47;;;;;;;;;;;9.60;1.00;;;;;;5075360;28;20314;-75
2022/03/22 03:29:13;;;;;;;;;;;9.50;1.00;;;;;;5092975;28;20360;-74
2022/03/22 03:31:39;;;;;;;;;;;;;;;;;;5093373;28;19908;-74
2022/03/22 03:34:05;;;;;;;;;;;;;;;;;;5096055;28;19923;-74
2022/03/22 03:36:30;;;;;;;;;;;9.50;1.00;;;;;;5094580;28;20451;-75
2022/03/22 03:38:56;;;;;;;;;;;9.50;1.00;;;;;;5113675;28;19962;-74
2022/03/22 03:47:09;;;;;;;;;;;9.70;1.00;;;;;;5113539;28;19918;-74
2022/03/22 03:49:42;;;;;;;;;;;9.80;1.00;;;;;;5113442;28;19908;-74
2022/03/22 03:52:08;;;;;;;;;;;;;;;;;;5113044;28;19957;-74
2022/03/22 03:54:34;;;;;;;;;;;9.80;1.00;;;;;;5113191;28;19912;-75
2022/03/22 03:56:59;;;;;;;;;;;9.80;1.00;;;;;;5113181;28;20435;-74
2022/03/22 03:59:25;;;;;;;;;;;9.80;1.00;;;;;;5112575;28;19914;-74
2022/03/22 04:01:50;;;;;;;;;;;9.80;1.00;;;;;;5105970;28;20335;-74
2022/03/22 04:04:16;;;;;;;;;;;;;;;;;;5112553;28;19908;-74
2022/03/22 04:06:42;;;;;;;;;;;9.90;1.00;;;;;;5113538;28;20358;-75
2022/03/22 04:09:08;;;;;;;;;;;;;;;;;;5113091;28;19912;-73
2022/03/22 04:11:33;;;;;;;;;;;9.90;1.00;;;;;;5112705;28;19908;-72
2022/03/22 04:13:59;;;;;;;;;;;9.90;1.00;;;;;;5112920;28;19915;-75
2022/03/22 04:16:24;;;;;;;;;;;9.80;1.00;;;;;;5112186;28;20360;-73
2022/03/22 04:18:50;;;;;;;;;;;9.90;1.00;;;;;;5113181;28;19912;-74
2022/03/22 04:21:16;;;;;;;;;;;9.90;1.00;;;;;;5112270;28;19907;-73
2022/03/22 04:23:41;;;;;;;;;;;9.80;1.00;;;;;;5112974;28;19907;-74
2022/03/22 04:26:07;;;;;;;;;;;;;;;;;;5094769;28;19915;-75
2022/03/22 04:34:01;;;;;;;;;;;9.80;1.00;;;;;;5110480;28;19914;-74
2022/03/22 04:36:28;;;;;;;;;;;9.60;1.00;;;;;;5091412;28;20276;-75
2022/03/22 04:38:54;;;;;;;;;;;9.40;1.00;;;;;;5092506;28;19920;-74
2022/03/22 04:41:20;;;;;;;;;;;9.40;1.00;;;;;;5091660;28;20014;-74
2022/03/22 04:43:46;;;;;;;;;;;9.30;1.00;;;;;;5108027;28;20034;-74
2022/03/22 04:46:18;;;;;;;;;;;;;;;;;;5091912;28;19908;-74
2022/03/22 04:48:45;;;;;;;;;;;8.90;1.00;;;;;;5092717;28;19908;-74
2022/03/22 04:56:48;;;;;;;;;;;8.90;1.00;;;;;;5092387;28;19920;-75
2022/03/22 04:59:14;;;;;;;;;;;;;;;;;;5095931;28;19908;-73
2022/03/22 05:01:40;;;;;;;;;;;;;;;;;;5096405;28;19908;-76
2022/03/22 05:04:06;;;;;;;;;;;8.90;1.00;;;;;;5099260;28;19915;-75
2022/03/22 05:06:35;;;;;;;;;;;8.80;1.00;;;;;;5116253;28;20455;-75
2022/03/22 05:09:02;;;;;;;;;;;8.80;1.00;;;;;;5116660;28;19968;-74
2022/03/22 05:11:27;;;;;;;;;;;8.80;1.00;;;;;;5115846;28;19963;-73
2022/03/22 05:13:54;;;;;;;;;;;8.90;1.00;;;;;;5116542;28;19907;-74
2022/03/22 05:16:20;;;;;;;;;;;;;;;;;;5097288;28;19912;-75
2022/03/22 05:18:47;;;;;;;;;;;8.80;1.00;;;;;;5116392;28;20017;-74
2022/03/22 05:21:13;;;;;;;;;;;;;;;;;;5097736;28;20272;-73
2022/03/22 05:23:39;;;;;;;;;;;8.70;1.00;;;;;;5116054;28;19911;-75
2022/03/22 05:26:05;;;;;;;;;;;8.90;1.00;;;;;;5097961;28;19918;-74
2022/03/22 05:28:31;;;;;;;;;;;9.00;1.00;;;;;;5115658;28;19919;-75
2022/03/22 05:30:56;;;;;;;;;;;9.10;1.00;;;;;;5121269;27;20014;-75
2022/03/22 05:33:23;;;;;;;;;;;9.10;1.00;;;;;;5135995;27;20419;-74
2022/03/22 05:35:48;;;;;;;;;;;9.10;1.00;;;;;;5134758;27;20010;-74
2022/03/22 05:38:15;;;;;;;;;;;;;;;;;;5136228;27;19946;-73
2022/03/22 05:40:40;;;;;;;;;;;9.00;1.00;;;;;;5136410;27;20073;-74
2022/03/22 05:43:06;;;;;;;;;;;9.10;1.00;;;;;;5136924;27;20476;-75
2022/03/22 05:45:32;;;;;;;;;;;9.00;1.00;;;;;;5137171;27;20334;-74
2022/03/22 05:48:00;;;;;;;;;;;9.00;1.00;;;;;;5119021;27;19907;-74
2022/03/22 05:50:26;;;;;;;;;;;8.90;1.00;;;;;;5135778;27;20252;-74
2022/03/22 05:52:52;;;;;;;;;;;8.70;1.00;;;;;;5136350;27;19907;-75
2022/03/22 05:55:18;;;;;;;;;;;;;;;;;;5135464;27;20275;-73
2022/03/22 05:57:43;;;;;;;;;;;8.50;1.00;;;;;;5136156;27;19907;-74
2022/03/22 06:00:10;;;;;;;;;;;8.40;1.00;;;;;;5136104;27;19950;-74
2022/03/22 06:02:37;;;;;;;;;;;8.30;1.00;;;;;;5135365;27;19986;-74
2022/03/22 06:05:03;;;;;;;;;;;8.40;1.00;;;;;;5106466;28;19908;-74
2022/03/22 06:07:29;;;;;;;;;;;;;;;;;;5114551;28;20011;-74
2022/03/22 06:09:54;;;;;;;;;;;8.40;1.00;;;;;;5115069;28;19994;-74
2022/03/22 06:12:20;;;;;;;;;;;8.40;1.00;;;;;;5114702;28;19924;-73
2022/03/22 06:14:45;;;;;;;;;;;8.30;1.00;;;;;;5115255;28;19908;-74
2022/03/22 06:17:11;;;;;;;;;;;8.40;1.00;;;;;;5115244;28;19963;-74
2022/03/22 06:19:37;;;;;;;;;;;8.30;1.00;;;;;;5114467;28;19907;-73
2022/03/22 06:22:02;;;;;;;;;;;8.40;1.00;;;;;;5115286;28;19953;-81
2022/03/22 06:24:28;;;;;;;;;;;8.50;1.00;;;;;;5114350;28;19908;-73
2022/03/22 06:26:54;;;;;;;;;;;8.60;1.00;;;;;;5115140;28;19956;-69
2022/03/22 06:29:19;;;;;;;;;;;;;;;;;;5106667;28;20269;-70
2022/03/22 06:31:45;;;;;;;;;;;;;;;;;;5078280;27;19919;-70
2022/03/22 06:34:11;;;;;;;;;;;8.80;1.00;;;;;;5131722;27;19918;-69
2022/03/22 06:36:36;;;;;;;;;;;8.80;1.00;;;;;;5113820;28;20002;-67
2022/03/22 06:39:02;;;;;;;;;;;8.90;1.00;;;;;;5114851;28;19912;-69
2022/03/22 06:41:28;;;;;;;;;;;8.90;1.00;;;;;;5114086;28;19907;-67
2022/03/22 06:43:53;;;;;;;;;;;9.00;1.00;;;;;;5114827;28;19915;-72
2022/03/22 06:46:22;;;;;;;;;;;;;;;;;;5114373;28;19908;-70
2022/03/22 06:48:48;;;;;;;;;;;9.10;1.00;;;;;;5115215;28;19908;-71
2022/03/22 06:51:13;;;;;;;;;;;9.20;1.00;;;;;;5114460;28;19915;-72
2022/03/22 06:53:39;;;;;;;;;;;9.30;1.00;;;;;;5113846;28;20033;-72
2022/03/22 06:56:05;;;;;;;;;;;9.30;1.00;;;;;;5095380;28;19916;-73
2022/03/22 06:58:31;;;;;;;;;;;9.40;1.00;;;;;;5123228;27;19918;-73
2022/03/22 07:00:56;;;;;;;;;;;9.50;1.00;;;;;;5135186;27;19907;-73
2022/03/22 07:03:22;;;;;;;;;;;9.60;1.00;;;;;;5116546;27;19908;-72
2022/03/22 07:05:47;;;;;;;;;;;9.60;1.00;;;;;;5089608;28;19942;-73
2022/03/22 07:08:13;;;;;;;;;;;9.60;1.00;;;;;;5114312;28;19966;-74
2022/03/22 07:10:38;;;;;;;;;;;9.70;1.00;;;;;;5113467;28;19904;-70
2022/03/22 07:13:05;;;;;;;;;;;10.80;1.00;;;;;;5098449;28;20003;-70
2022/03/22 07:15:33;;;;;;;;;;;;;;;;;;5104883;27;19920;-71
2022/03/22 07:18:00;;;;;;;;;;;11.70;1.00;;;;;;5114800;27;19960;-70
2022/03/22 07:20:26;;;;;;;;;;;;;;;;;;5127745;27;19918;-70
2022/03/22 07:22:51;;;;;;;;;;;11.70;1.00;;;;;;5134552;27;20002;-71
2022/03/22 07:25:17;;;;;;;;;;;11.70;1.00;;;;;;5121632;27;19911;-71
2022/03/22 07:27:43;;;;;;;;;;;10.90;1.00;;;;;;5109806;28;19915;-71
2022/03/22 07:30:11;;;;;;;;;;;11.00;1.00;;;;;;5102649;28;20006;-72
2022/03/22 07:32:37;;;;;;;;;;;;;;;;;;5115220;27;19958;-70
2022/03/22 07:35:02;;;;;;;;;;;;;;;;;;5122082;27;20325;-69
2022/03/22 07:37:31;;;;;;;;;;;11.10;1.00;;;;;;5103678;28;19920;-69
2022/03/22 07:39:57;;;;;;;;;;;10.60;1.00;;;;;;5112259;28;19960;-70
2022/03/22 07:42:24;;;;;;;;;;;;;;;;;;5087378;28;20360;-70
2022/03/22 07:44:49;;;;;;;;;;;10.70;1.00;;;;;;5111971;28;19907;-72
2022/03/22 07:47:15;;;;;;;;;;;;;;;;;;5112329;28;19908;-72
2022/03/22 07:55:10;;;;;;;;;;;11.00;1.00;;;;;;5110275;28;19964;-66
2022/03/22 07:57:36;;;;;;;;;;;10.90;1.00;;;;;;5111200;28;19915;-64
2022/03/22 08:00:04;;;;;;;;;;;11.10;1.00;;;;;;5112007;28;19915;-65
2022/03/22 08:02:29;;;;;;;;;;;11.10;1.00;;;;;;5110551;28;19915;-66
2022/03/22 08:04:55;;;;;;;;;;;11.30;1.00;;;;;;5116822;27;19911;-67
2022/03/22 08:07:21;;;;;;;;;;;;;;;;;;5120031;27;19919;-67
2022/03/22 08:09:47;;;;;;;;;;;;;;;;;;5123690;27;19912;-66
2022/03/22 08:12:12;;;;;;;;;;;11.60;1.00;;;;;;5119306;27;19918;-66
2022/03/22 08:14:38;;;;;;;;;;;11.70;1.00;;;;;;5129161;27;19950;-66
2022/03/22 08:17:03;;;;;;;;;;;11.80;1.00;;;;;;5116574;27;19922;-66
2022/03/22 08:19:29;;;;;;;;;;;12.00;1.00;;;;;;5108990;28;20378;-66
2022/03/22 08:21:55;;;;;;;;;;;12.20;1.00;;;;;;5109987;28;19915;-66
2022/03/22 08:24:22;;;;;;;;;;;;;;;;;;5112599;28;19918;-67
2022/03/22 08:26:48;;;;;;;;;;;;;;;;;;5111069;28;19915;-65
2022/03/22 08:29:14;;;;;;;;;;;12.90;1.00;;;;;;5111550;28;20010;-66
2022/03/22 08:31:40;;;;;;;;;;;13.20;1.00;;;;;;5121816;27;19955;-65
2022/03/22 08:34:06;;;;;;;;;;;;;;;;;;5109313;28;20417;-68
2022/03/22 08:36:33;;;;;;;;;;;;;;;;;;5109328;27;20426;-68
2022/03/22 08:38:59;;;;;;;;;;;12.80;1.00;;;;;;5110683;28;19920;-67
2022/03/22 08:41:25;;;;;;;;;;;;;;;;;;5109899;28;19991;-67
2022/03/22 08:43:52;;;;;;;;;;;;;;;;;;5102528;28;20364;-72
2022/03/22 08:46:20;;;;;;;;;;;12.30;1.00;;;;;;5112401;28;19998;-74
2022/03/22 08:48:46;;;;;;;;;;;12.40;1.00;;;;;;5111743;28;19916;-72
2022/03/22 08:51:13;;;;;;;;;;;;;;;;;;5107070;28;19918;-71
2022/03/22 08:53:38;;;;;;;;;;;12.70;1.00;;;;;;5109324;28;19912;-68
2022/03/22 08:56:04;;;;;;;;;;;;;;;;;;5094773;28;19920;-65
2022/03/22 08:58:30;;;;;;;;;;;12.90;1.00;;;;;;5110282;28;19944;-65
2022/03/22 09:00:55;;;;;;;;;;;13.10;1.00;;;;;;5106656;28;20275;-66
2022/03/22 09:03:22;;;;;;;;;;;;;;;;;;5113948;28;19977;-66
2022/03/22 09:08:32;;;;;;;;;;;13.30;1.00;;;;;;5117657;28;19922;-65
2022/03/22 09:10:58;;;;;;;;;;;;;;;;;;5106389;28;19916;-66
2022/03/22 09:13:24;;;;;;;;;;;;;;;;;;5133480;28;19908;-65
2022/03/22 09:15:51;;;;;;;;;;;;;;;;;;5112827;28;20005;-65
2022/03/22 09:18:17;;;;;;;;;;;14.10;1.00;;;;;;5133116;28;19914;-65
2022/03/22 09:20:43;;;;;;;;;;;;;;;;;;5097557;28;19908;-66
2022/03/22 09:23:09;;;;;;;;;;;14.30;1.00;;;;;;5108222;28;19908;-66
2022/03/22 09:25:35;;;;;;;;;;;14.40;1.00;;;;;;5111466;28;19916;-66
2022/03/22 09:28:04;;;;;;;;;;;14.70;1.00;;;;;;5134500;28;19912;-64
2022/03/22 09:30:30;;;;;;;;;;;15.00;1.00;;;;;;5129211;28;19907;-64
2022/03/22 09:32:57;;;;;;;;;;;;;;;;;;5101633;28;19952;-67
2022/03/22 09:35:23;;;;;;;;;;;;;;;;;;5132332;28;19945;-64
2022/03/22 09:37:49;;;;;;;;;;;;;;;;;;5115126;28;20041;-65
2022/03/22 09:40:16;;;;;;;;;;;14.80;1.00;;;;;;5103168;28;20379;-64
2022/03/22 09:42:48;;;;;;;;;;;14.80;1.00;;;;;;5087722;28;20034;-64
2022/03/22 09:45:14;;;;;;;;;;;15.10;1.00;;;;;;5127885;27;19918;-63
2022/03/22 09:47:41;;;;;;;;;;;;;;;;;;5125611;27;19912;-63
2022/03/22 09:50:08;;;;;;;;;;;15.30;1.00;;;;;;5137260;27;20310;-63
2022/03/22 09:52:35;;;;;;;;;;;15.60;1.00;;;;;;5136479;27;20020;-63
2022/03/22 09:55:00;;;;;;;;;;;15.90;1.00;;;;;;5138964;27;20383;-63
2022/03/22 09:57:28;;;;;;;;;;;;;;;;;;5136992;27;19911;-65
2022/03/22 09:59:53;;;;;;;;;;;;;;;;;;5138498;27;19936;-63
2022/03/22 10:02:26;;;;;;;;;;;15.70;1.00;;;;;;5138706;27;19908;-62
2022/03/22 10:04:52;;;;;;;;;;;;;;;;;;5122345;27;19911;-64
2022/03/22 10:07:19;;;;;;;;;;;15.70;1.00;;;;;;5114540;28;20329;-64
2022/03/22 10:09:51;;;;;;;;;;;15.80;1.00;;;;;;5120969;27;19915;-64
2022/03/22 10:12:24;;;;;;;;;;;16.00;1.00;;;;;;5138106;27;19957;-64
2022/03/22 10:14:50;;;;;;;;;;;16.20;1.00;;;;;;5113975;27;19919;-64
2022/03/22 10:17:17;;;;;;;;;;;;;;;;;;5126684;27;19911;-64
2022/03/22 10:19:43;;;;;;;;;;;;;;;;;;5100539;28;19950;-64
2022/03/22 10:22:10;;;;;;;;;;;16.30;1.00;;;;;;5127465;27;19951;-63
2022/03/22 10:24:46;;;;;;;;;;;16.30;1.00;;;;;;5126402;27;19911;-65
2022/03/22 10:27:18;;;;;;;;;;;16.40;1.00;;;;;;5117322;27;19934;-66
2022/03/22 10:29:44;;;;;;;;;;;16.20;1.00;;;;;;5136167;27;19904;-66
2022/03/22 10:32:11;;;;;;;;;;;;;;;;;;5128451;27;19923;-66
2022/03/22 10:34:37;;;;;;;;;;;;;;;;;;5112228;27;19919;-66
2022/03/22 10:37:02;;;;;;;;;;;16.50;1.00;;;;;;5115668;27;19919;-66
2022/03/22 10:39:28;;;;;;;;;;;16.60;1.00;;;;;;5107939;27;19923;-65
2022/03/22 10:42:02;;;;;;;;;;;16.70;1.00;;;;;;5102769;28;19912;-65
2022/03/22 10:44:28;;;;;;;;;;;16.60;1.00;;;;;;5110598;27;19912;-65
2022/03/22 10:46:54;;;;;;;;;;;;;;;;;;5114592;28;19907;-64
2022/03/22 10:49:20;;;;;;;;;;;16.40;1.00;;;;;;5113806;27;19912;-71
2022/03/22 10:51:50;;;;;;;;;;;16.40;1.00;;;;;;5113834;28;19940;-72
2022/03/22 10:54:17;;;;;;;;;;;;;;;;;;5114637;28;19908;-72
2022/03/22 10:56:47;;;;;;;;;;;16.50;1.00;;;;;;5113803;28;19955;-72
2022/03/22 10:59:14;;;;;;;;;;;16.70;1.00;;;;;;5114558;28;19908;-72
2022/03/22 11:01:41;;;;;;;;;;;16.70;1.00;;;;;;5113712;28;19907;-72
2022/03/22 11:04:08;;;;;;;;;;;16.80;1.00;;;;;;5114487;28;20288;-71
2022/03/22 11:06:34;;;;;;;;;;;;;;;;;;5113814;28;19961;-72
2022/03/22 11:09:00;;;;;;;;;;;16.80;1.00;;;;;;5114240;28;20003;-71
2022/03/22 11:11:28;;;;;;;;;;;;;;;;;;5113908;28;19912;-72
2022/03/22 11:13:54;;;;;;;;;;;16.70;1.00;;;;;;5114204;28;19915;-72
2022/03/22 11:16:20;;;;;;;;;;;;;;;;;;5114055;28;19911;-73
2022/03/22 11:18:46;;;;;;;;;;;16.90;1.00;;;;;;5113437;28;19903;-72
2022/03/22 11:21:15;;;;;;;;;;;17.00;1.00;;;;;;5114153;28;19914;-71
2022/03/22 11:23:42;;;;;;;;;;;;;;;;;;5095703;27;19947;-71
2022/03/22 11:26:12;;;;;;;;;;;17.40;1.00;;;;;;5087404;28;20015;-73
2022/03/22 11:28:38;;;;;;;;;;;17.30;1.00;;;;;;5093553;28;19943;-74
2022/03/22 11:31:05;;;;;;;;;;;17.20;1.00;;;;;;5112679;28;19950;-73
2022/03/22 11:36:19;;;;;;;;;;;17.30;1.00;;;;;;5110501;28;19926;-72
2022/03/22 11:38:45;;;;;;;;;;;;;;;;;;5112101;28;19922;-72
2022/03/22 11:44:21;;;;;;;;;;;17.60;1.00;;;;;;5117554;27;19914;-73
2022/03/22 11:46:47;;;;;;;;;;;;;;;;;;5112734;27;19915;-74
2022/03/22 11:49:16;;;;;;;;;;;17.90;1.00;;;;;;5108000;28;19908;-74
2022/03/22 11:51:42;;;;;;;;;;;;;;;;;;5109160;28;19957;-74
2022/03/22 11:54:07;;;;;;;;;;;18.00;1.00;;;;;;5109730;28;19950;-74
2022/03/22 11:56:33;;;;;;;;;;;;;;;;;;5089757;28;20065;-73
2022/03/22 11:58:59;;;;;;;;;;;;;;;;;;5088445;28;19919;-74
2022/03/22 12:01:25;;;;;;;;;;;;;;;;;;5107317;28;19916;-74
2022/03/22 12:03:54;;;;;;;;;;;;;;;;;;5105217;28;19907;-74
2022/03/22 12:06:20;;;;;;;;;;;;;;;;;;5109232;28;19915;-74
2022/03/22 12:08:46;;;;;;;;;;;;;;;;;;5108601;28;20123;-74
2022/03/22 12:11:12;;;;;;;;;;;;;;;;;;5110071;28;20276;-74
2022/03/22 12:13:38;;;;;;;;;;;;;;;;;;5111452;27;19911;-74
2022/03/22 12:16:05;;;;;;;;;;;;;;;;;;5130208;27;19911;-74
2022/03/22 12:18:31;;;;;;;;;;;;;;;;;;5119339;27;19949;-74
2022/03/22 12:20:57;;;;;;;;;;;;;;;;;;5122846;27;20004;-74
2022/03/22 12:23:23;;;;;;;;;;;18.50;1.00;;;;;;5101938;27;20053;-74
2022/03/22 12:25:48;;;;;;;;;;;18.50;1.00;;;;;;5129389;27;19903;-74
2022/03/22 12:28:16;;;;;;;;;;;18.40;1.00;;;;;;5130039;27;20396;-74
2022/03/22 12:30:42;;;;;;;;;;;;;;;;;;5087753;28;19973;-74
2022/03/22 12:33:09;;;;;;;;;;;;;;;;;;5125369;27;19950;-74
2022/03/22 12:35:35;;;;;;;;;;;18.60;1.00;;;;;;5081781;28;20057;-74
2022/03/22 12:38:01;;;;;;;;;;;18.50;1.00;;;;;;5078133;28;20011;-74
2022/03/22 12:40:27;;;;;;;;;;;;;;;;;;5088612;28;20015;-74
2022/03/22 12:42:53;;;;;;;;;;;18.50;1.00;;;;;;5108552;28;19919;-73
2022/03/22 12:45:19;;;;;;;;;;;;;;;;;;5108894;28;19911;-74
2022/03/22 12:47:45;;;;;;;;;;;18.60;1.00;;;;;;5097451;28;20299;-73
2022/03/22 12:50:12;;;;;;;;;;;18.90;1.00;;;;;;5086880;28;20059;-73
2022/03/22 12:52:38;;;;;;;;;;;;;;;;;;5099643;28;20715;-72
2022/03/22 12:55:04;;;;;;;;;;;;;;;;;;5109276;28;19908;-72
2022/03/22 12:57:30;;;;;;;;;;;;;;;;;;5108516;28;20003;-73
2022/03/22 12:59:56;;;;;;;;;;;18.80;1.00;;;;;;5108769;28;20374;-74
2022/03/22 13:02:22;;;;;;;;;;;;;;;;;;5081570;28;19912;-74
2022/03/22 13:04:48;;;;;;;;;;;;;;;;;;5068077;28;19912;-75
2022/03/22 13:07:13;;;;;;;;;;;;;;;;;;5068753;28;20375;-74
2022/03/22 13:12:24;;;;;;;;;;;;;;;;;;5068494;28;19920;-73
2022/03/22 13:15:04;;;;;;;;;;;19.20;1.00;;;;;;5077257;28;19908;-73
2022/03/22 13:17:45;;;;;;;;;;;19.40;1.00;;;;;;5082756;28;19920;-75
2022/03/22 13:20:24;;;;;;;;;;;19.20;1.00;;;;;;5074181;28;19909;-74
2022/03/22 13:22:50;;;;;;;;;;;;;;;;;;5071160;28;19919;-74
2022/03/22 13:25:18;;;;;;;;;;;;;;;;;;5072358;28;20005;-74
2022/03/22 13:27:44;;;;;;;;;;;;;;;;;;5071626;28;19975;-74
2022/03/22 13:30:10;;;;;;;;;;;;;;;;;;5098066;28;19954;-74
2022/03/22 13:32:37;;;;;;;;;;;;;;;;;;5095364;28;20361;-73
2022/03/22 13:35:02;;;;;;;;;;;;;;;;;;5093263;28;20412;-73
2022/03/22 13:37:28;;;;;;;;;;;;;;;;;;5101572;28;19923;-74
2022/03/22 13:39:54;;;;;;;;;;;;;;;;;;5112814;27;20399;-73
2022/03/22 13:42:21;;;;;;;;;;;19.70;1.00;;;;;;5106424;28;19916;-73
2022/03/22 13:44:48;;;;;;;;;;;;;;;;;;5108957;27;19949;-75
2022/03/22 13:47:14;;;;;;;;;;;;;;;;;;5118209;27;19919;-76
2022/03/22 13:49:39;;;;;;;;;;;19.70;1.00;;;;;;5119295;27;19935;-72
2022/03/22 13:52:05;;;;;;;;;;;19.70;1.00;;;;;;5133177;27;20416;-72
2022/03/22 13:54:30;;;;;;;;;;;19.50;1.00;;;;;;5114450;27;19911;-73
2022/03/22 13:57:06;;;;;;;;;;;19.50;1.00;;;;;;5131486;27;19972;-70
2022/03/22 13:59:32;;;;;;;;;;;;;;;;;;5128251;27;19912;-72
2022/03/22 14:01:58;;;;;;;;;;;;;;;;;;5094150;28;19912;-72
2022/03/22 14:04:24;;;;;;;;;;;19.50;1.00;;;;;;5107903;28;19972;-72
2022/03/22 14:06:49;;;;;;;;;;;19.60;1.00;;;;;;5114657;28;19912;-72
2022/03/22 14:09:15;;;;;;;;;;;19.70;1.00;;;;;;5115480;28;19915;-72
2022/03/22 14:11:43;;;;;;;;;;;20.00;1.00;;;;;;5096989;28;20275;-72
2022/03/22 14:14:09;;;;;;;;;;;20.20;1.00;;;;;;5116119;28;19908;-72
2022/03/22 14:16:34;;;;;;;;;;;;;;;;;;5115148;28;20010;-72
2022/03/22 14:19:00;;;;;;;;;;;20.10;1.00;;;;;;5114868;28;19907;-72
2022/03/22 14:21:26;;;;;;;;;;;19.80;1.00;;;;;;5115308;28;19908;-73
2022/03/22 14:23:51;;;;;;;;;;;19.60;1.00;;;;;;5114722;28;19919;-72
2022/03/22 14:26:17;;;;;;;;;;;19.70;1.00;;;;;;5115421;28;20384;-72
2022/03/22 14:28:42;;;;;;;;;;;19.80;1.00;;;;;;5114281;28;20253;-74
2022/03/22 14:31:08;;;;;;;;;;;;;;;;;;5115427;28;20379;-73
2022/03/22 14:33:34;;;;;;;;;;;;;;;;;;5114979;28;19981;-72
2022/03/22 14:36:00;;;;;;;;;;;;;;;;;;5092341;28;20390;-72
2022/03/22 14:38:27;;;;;;;;;;;19.40;1.00;;;;;;5094494;28;19913;-72
2022/03/22 14:40:54;;;;;;;;;;;20.10;1.00;;;;;;5093963;28;19908;-72
2022/03/22 14:43:21;;;;;;;;;;;19.80;1.00;;;;;;5094399;28;19908;-73
2022/03/22 14:45:47;;;;;;;;;;;20.20;1.00;;;;;;5093674;28;19908;-73
2022/03/22 14:48:14;;;;;;;;;;;19.90;1.00;;;;;;5094339;28;19915;-72
2022/03/22 14:50:40;;;;;;;;;;;;;;;;;;5093782;28;19908;-73
2022/03/22 14:58:46;;;;;;;;;;;20.60;1.00;;;;;;5093439;28;19957;-73
2022/03/22 14:58:50;;;;;;;;;;;;;;;;;;5090281;28;20314;-73
2022/03/22 15:01:16;;;;;;;;;;;20.10;1.00;;;;;;5093553;28;19946;-74
2022/03/22 15:03:42;;;;;;;;;;;20.20;1.00;;;;;;5093340;28;19940;-73
2022/03/22 15:06:09;;;;;;;;;;;20.30;1.00;;;;;;5094397;28;19912;-74
2022/03/22 15:08:36;;;;;;;;;;;19.60;1.00;;;;;;5094216;28;19912;-73
2022/03/22 15:11:02;;;;;;;;;;;20.20;1.00;;;;;;5091880;28;19919;-73
2022/03/22 15:13:28;;;;;;;;;;;19.90;1.00;;;;;;5093948;28;19999;-73
2022/03/22 15:15:54;;;;;;;;;;;20.00;1.00;;;;;;5092903;28;20006;-73
2022/03/22 15:18:20;;;;;;;;;;;20.20;1.00;;;;;;5093842;28;19950;-73
2022/03/22 15:20:45;;;;;;;;;;;20.00;1.00;;;;;;5092998;28;19909;-74
2022/03/22 15:23:12;;;;;;;;;;;;;;;;;;5093957;28;19912;-74
2022/03/22 15:25:41;;;;;;;;;;;19.70;1.00;;;;;;5092338;28;20002;-73
2022/03/22 15:28:07;;;;;;;;;;;19.50;1.00;;;;;;5093430;28;19912;-73
2022/03/22 15:30:33;;;;;;;;;;;19.80;1.00;;;;;;5093705;28;19972;-73
2022/03/22 15:32:59;;;;;;;;;;;19.90;1.00;;;;;;5092819;28;20415;-74
2022/03/22 15:35:25;;;;;;;;;;;19.90;1.00;;;;;;5097449;28;19920;-73
2022/03/22 15:37:51;;;;;;;;;;;19.80;1.00;;;;;;5113041;28;19915;-73
2022/03/22 15:40:17;;;;;;;;;;;19.70;1.00;;;;;;5113587;28;19915;-73
2022/03/22 15:42:43;;;;;;;;;;;;;;;;;;5113265;28;19908;-73
2022/03/22 15:45:10;;;;;;;;;;;20.00;1.00;;;;;;5113647;28;19990;-73